Flugwetter

METAR EDDW
2024/02/22 12:50 EDDW 221250Z AUTO 19011KT 160V220 9999 SCT019 BKN027 12/08 Q0988 NOSIG
TAF EDDW
2024/02/22 12:27 TAF TAF EDDW 221100Z 2212/2312 19010KT 9999 BKN025 BECMG 2215/2217 16015G25KT BECMG 2217/2219 20020G35KT PROB30 TEMPO 2217/2220 4000 RA BKN012 BECMG 2219/2221 20025G40KT TEMPO 2221/2301 23030G50KT PROB30 TEMPO 2222/2301 23040G60KT SHRA BKN012TCU BECMG 2301/2303 23020G30KT TEMPO 2303/2305 23015G25KT TEMPO 2308/2312 23025G40KT
METAR EDDH
2024/02/22 12:50 EDDH 221250Z AUTO 20009KT 9999 FEW011 BKN021 BKN026 11/09 Q0988 NOSIG
TAF EDDH
2024/02/22 12:30 TAF TAF COR EDDH 221125Z 2212/2318 19010KT 9999 BKN007 BECMG 2212/2214 BKN025 BECMG 2217/2219 16015G25KT BECMG 2219/2221 20020G35KT PROB30 TEMPO 2219/2222 4000 RA BKN012 BECMG 2221/2223 20025G40KT TEMPO 2223/2303 23030G50KT PROB30 TEMPO 2223/2302 23040G60KT SHRA BKN012TCU BECMG 2303/2305 23020G30KT TEMPO 2305/2307 23015G25KT PROB30 TEMPO 2313/2318 23025G40KT SHRA BKN020TCU
METAR VRMM
2024/02/22 13:00 VRMM 221300Z 07011KT 9000 FEW018 BKN110 29/25 Q1011 NOSIG
TAF VRMM
2024/02/22 12:39 TAF VRMM 221100Z 2212/2318 05012KT 9000 FEW018TCU SCT120 TEMPO 2212/2218 FEW018CB

Quelle:

Bereitgestellt von den Servern der NOAA tgftp.nws.noaa.gov
Alle Angaben ohne Gewähr